Time;durP1;ratioP1;P1;durP2;ratioP2;P2;SDS_P1;SDS_P2;PMS_P1;PMS_P2;Temp;Humidity;BMP_temperature;BMP_pressure;BME280_temperature;BME280_humidity;BME280_pressure;Samples;Min_cycle;Max_cycle;Signal;HPM_P1;HPM_P2
2022/01/23 00:00:42;;;;;;;0.60;0.60;;;;;;;-4.59;70.24;92411.19;5018780;28;20613;-72
2022/01/23 00:03:16;;;;;;;0.87;0.87;;;;;;;-4.61;70.34;92406.25;5018910;28;20500;-72
2022/01/23 00:05:44;;;;;;;0.83;0.83;;;;;;;-4.63;70.27;92411.97;5017996;28;20578;-71
2022/01/23 00:08:15;;;;;;;0.87;0.87;;;;;;;-4.60;71.03;92398.03;5018494;28;20198;-72
2022/01/23 00:10:42;;;;;;;0.63;0.63;;;;;;;-4.58;72.20;92389.84;5018447;28;20202;-72
2022/01/23 00:13:14;;;;;;;0.60;0.60;;;;;;;-4.66;71.58;92393.06;5018064;28;20663;-72
2022/01/23 00:18:28;;;;;;;0.60;0.60;;;;;;;-4.66;71.65;92402.06;5018683;28;20747;-71
2022/01/23 00:20:56;;;;;;;0.60;0.60;;;;;;;-4.62;72.31;92389.78;5018608;28;20556;-72
2022/01/23 00:23:33;;;;;;;0.60;0.60;;;;;;;-4.58;71.85;92405.44;5018031;28;20251;-72
2022/01/23 00:31:45;;;;;;;0.60;0.60;;;;;;;-4.66;72.79;92407.00;4937671;28;20531;-72
2022/01/23 00:34:12;;;;;;;0.60;0.60;;;;;;;-4.62;71.48;92403.78;4937714;28;20575;-72
2022/01/23 00:36:39;;;;;;;0.60;0.60;;;;;;;-4.70;70.44;92422.56;4972148;28;20498;-72
2022/01/23 00:39:08;;;;;;;0.50;0.50;;;;;;;-4.63;70.61;92407.88;5017694;28;20226;-72
2022/01/23 00:41:35;;;;;;;0.60;0.60;;;;;;;-4.74;68.94;92425.81;5018719;28;20630;-71
2022/01/23 00:44:03;;;;;;;0.67;0.67;;;;;;;-4.85;68.32;92417.50;5018570;28;20541;-70
2022/01/23 00:46:34;;;;;;;0.57;0.57;;;;;;;-4.85;69.06;92425.72;5018582;28;20470;-72
2022/01/23 00:51:45;;;;;;;0.60;0.60;;;;;;;-4.96;68.78;92428.88;5007415;28;20475;-72
2022/01/23 00:54:13;;;;;;;0.70;0.70;;;;;;;-4.98;69.09;92418.16;5017246;28;20645;-72
2022/01/23 00:56:41;;;;;;;0.60;0.60;;;;;;;-5.03;67.95;92432.88;5017259;28;20225;-72
2022/01/23 00:59:08;;;;;;;0.60;0.60;;;;;;;-5.08;67.85;92427.91;5018026;28;20519;-71
2022/01/23 01:01:35;;;;;;;0.50;0.50;;;;;;;-5.06;68.40;92427.91;5018131;28;20610;-72
2022/01/23 01:04:03;;;;;;;0.67;0.67;;;;;;;-4.99;68.02;92427.19;5017880;28;20530;-72
2022/01/23 01:06:30;;;;;;;0.73;0.73;;;;;;;-5.03;68.94;92425.50;5017656;28;20594;-72
2022/01/23 01:09:02;;;;;;;12.97;1.53;;;;;;;-4.99;68.27;92434.56;5016618;28;20289;-71
2022/01/23 01:11:55;;;;;;;0.50;0.50;;;;;;;-4.95;67.57;92438.72;5017678;28;20529;-72
2022/01/23 01:14:32;;;;;;;0.60;0.60;;;;;;;-4.97;67.59;92437.06;5017145;28;20310;-71
2022/01/23 01:17:06;;;;;;;0.60;0.60;;;;;;;-5.07;67.29;92431.22;5016925;28;20601;-71
2022/01/23 01:30:41;;;;;;;0.60;0.60;;;;;;;-5.04;67.12;92441.09;5016970;28;20585;-72
2022/01/23 01:33:19;;;;;;;0.67;0.67;;;;;;;-5.00;67.09;92440.31;5017164;28;20502;-72
2022/01/23 01:35:53;;;;;;;0.60;0.60;;;;;;;-5.18;68.55;92406.44;5017323;28;20590;-72
2022/01/23 01:38:21;;;;;;;0.60;0.60;;;;;;;-5.10;67.74;92432.00;5016686;28;20626;-72
2022/01/23 01:40:48;;;;;;;0.83;0.83;;;;;;;-5.31;69.75;92418.59;5016760;28;20632;-72
2022/01/23 01:43:17;;;;;;;1.23;1.17;;;;;;;-5.17;68.78;92422.88;5020664;28;20214;-72
2022/01/23 01:45:45;;;;;;;0.80;0.80;;;;;;;-5.31;70.03;92421.88;5016930;28;20568;-72
2022/01/23 01:48:14;;;;;;;0.63;0.63;;;;;;;-5.34;70.95;92409.53;5017109;28;20249;-72
2022/01/23 01:50:46;;;;;;;2.63;0.90;;;;;;;-5.49;71.03;92399.50;5016605;28;20597;-72
2022/01/23 01:53:13;;;;;;;1.37;1.27;;;;;;;-5.27;68.81;92428.50;5016628;28;20474;-72
2022/01/23 01:55:44;;;;;;;0.80;0.80;;;;;;;-5.30;69.48;92415.34;5016588;28;20198;-72
2022/01/23 01:58:33;;;;;;;0.80;0.80;;;;;;;-5.21;68.49;92423.66;5017428;28;20260;-72
2022/01/23 02:01:06;;;;;;;0.60;0.60;;;;;;;-5.18;68.39;92437.63;5016835;28;20571;-72
2022/01/23 02:08:20;;;;;;;1.00;1.00;;;;;;;-5.18;68.53;92433.50;5016549;28;20225;-72
2022/01/23 02:09:14;;;;;;;0.73;0.73;;;;;;;-5.31;70.79;92423.50;5024962;28;20266;-72
2022/01/23 02:12:09;;;;;;;0.60;0.60;;;;;;;-5.26;68.47;92431.78;5035865;28;20570;-72
2022/01/23 02:14:44;;;;;;;0.50;0.50;;;;;;;-5.30;70.35;92416.16;5037128;28;20216;-73
2022/01/23 02:17:40;;;;;;;0.60;0.60;;;;;;;-5.32;70.19;92419.41;5035275;28;20659;-72
2022/01/23 02:23:07;;;;;;;2.10;1.23;;;;;;;-5.70;71.72;92406.59;5036310;28;20674;-72
2022/01/23 02:53:29;;;;;;;0.83;0.83;;;;;;;-5.13;68.76;92443.44;5035695;28;20499;-72
2022/01/23 02:55:58;;;;;;;0.93;0.93;;;;;;;-5.05;68.08;92457.50;5036488;28;20549;-72
2022/01/23 02:58:33;;;;;;;0.53;0.53;;;;;;;-4.99;67.29;92448.53;5036028;28;20644;-72
2022/01/23 03:01:09;;;;;;;1.00;1.00;;;;;;;-4.90;67.16;92453.56;5035596;28;20589;-72
2022/01/23 03:03:42;;;;;;;0.60;0.60;;;;;;;-4.77;66.34;92470.13;5035211;28;20454;-72
2022/01/23 03:06:23;;;;;;;0.60;0.60;;;;;;;-4.73;66.29;92470.16;5034973;28;20582;-72
2022/01/23 03:12:12;;;;;;;0.80;0.80;;;;;;;-4.67;67.72;92453.00;4974015;28;20286;-72
2022/01/23 03:14:47;;;;;;;0.63;0.63;;;;;;;-4.57;66.47;92473.66;4954588;28;20540;-72
2022/01/23 03:28:20;;;;;;;1.37;1.37;;;;;;;-4.45;65.23;92492.66;5004604;28;20556;-72
2022/01/23 03:31:07;;;;;;;1.07;1.07;;;;;;;-4.37;65.57;92479.59;5020736;28;20470;-72
2022/01/23 03:33:35;;;;;;;1.00;1.00;;;;;;;-4.37;65.60;92479.59;5025052;28;20570;-72
2022/01/23 03:36:04;;;;;;;0.63;0.63;;;;;;;-4.38;65.39;92487.81;5019846;28;20635;-72
2022/01/23 03:38:32;;;;;;;0.87;0.87;;;;;;;-4.29;65.77;92482.16;5018648;28;20627;-72
2022/01/23 03:41:01;;;;;;;1.03;1.03;;;;;;;-4.32;65.64;92485.41;5019428;28;20555;-72
2022/01/23 03:43:31;;;;;;;1.57;1.30;;;;;;;-4.31;65.64;92492.00;5019030;28;20536;-72
2022/01/23 03:46:21;;;;;;;0.90;0.90;;;;;;;-4.29;65.92;92487.91;5019365;28;20478;-72
2022/01/23 03:51:37;;;;;;;0.67;0.67;;;;;;;-4.37;64.77;92494.38;5018575;28;20660;-72
2022/01/23 03:54:04;;;;;;;0.70;0.70;;;;;;;-4.32;64.82;92492.78;5018331;28;20537;-72
2022/01/23 03:56:33;;;;;;;0.53;0.53;;;;;;;-4.34;64.78;92496.06;5018462;28;20517;-72
2022/01/23 03:59:00;;;;;;;7.03;1.53;;;;;;;-4.36;64.42;92497.69;5018260;28;20300;-72
2022/01/23 04:01:27;;;;;;;0.80;0.80;;;;;;;-4.35;64.33;92492.78;5018352;28;20652;-72
2022/01/23 04:03:58;;;;;;;0.83;0.83;;;;;;;-4.30;65.50;92495.28;5019019;28;20614;-72
2022/01/23 04:06:26;;;;;;;0.53;0.53;;;;;;;-4.21;65.09;92485.50;5019419;28;20593;-72
2022/01/23 04:08:53;;;;;;;1.40;1.40;;;;;;;-4.18;65.30;92486.38;5019240;28;20299;-72
2022/01/23 04:11:20;;;;;;;1.00;1.00;;;;;;;-4.08;65.16;92492.22;5019283;28;20597;-71
2022/01/23 04:13:55;;;;;;;0.80;0.80;;;;;;;-4.17;65.41;92492.13;5018388;28;20516;-71
2022/01/23 04:16:43;;;;;;;1.93;1.27;;;;;;;-4.25;65.47;92497.00;5018913;28;20548;-71
2022/01/23 04:19:18;;;;;;;0.83;0.83;;;;;;;-4.19;66.42;92493.75;5018458;28;20611;-71
2022/01/23 04:33:13;;;;;;;0.87;0.87;;;;;;;-4.23;64.39;92531.53;5001292;28;20591;-71
2022/01/23 05:00:22;;;;;;;0.70;0.70;;;;;;;-4.39;63.74;92550.22;5017635;28;20465;-71
2022/01/23 05:05:34;;;;;;;1.30;1.30;;;;;;;-4.70;65.52;92545.75;5017806;28;20221;-72
2022/01/23 05:08:05;;;;;;;1.17;1.07;;;;;;;-4.72;65.71;92545.75;5017418;28;20585;-72
2022/01/23 05:10:32;;;;;;;0.83;0.83;;;;;;;-4.69;65.43;92547.44;5017515;28;20567;-71
2022/01/23 05:13:00;;;;;;;3.30;3.20;;;;;;;-4.57;65.58;92557.44;5015361;28;20665;-72
2022/01/23 05:15:27;;;;;;;0.83;0.83;;;;;;;-4.60;65.62;92552.47;5017566;28;20564;-71
2022/01/23 05:17:56;;;;;;;0.80;0.80;;;;;;;-4.59;65.27;92571.38;5017514;28;20304;-72
2022/01/23 05:20:26;;;;;;;1.03;1.03;;;;;;;-4.55;65.79;92570.59;5017562;28;20218;-72
2022/01/23 05:22:59;;;;;;;1.60;1.60;;;;;;;-4.75;68.34;92555.56;5018204;28;20583;-72
2022/01/23 05:25:29;;;;;;;1.00;1.00;;;;;;;-4.70;67.53;92571.25;5017830;28;20202;-72
2022/01/23 05:27:56;;;;;;;0.70;0.70;;;;;;;-4.78;68.14;92559.63;5017103;28;20687;-72
2022/01/23 05:30:24;;;;;;;2.97;1.47;;;;;;;-4.75;67.21;92576.91;5017461;28;20551;-72
2022/01/23 05:32:52;;;;;;;1.00;1.00;;;;;;;-4.90;67.72;92571.78;5017370;28;20563;-72
2022/01/23 05:35:23;;;;;;;1.23;1.23;;;;;;;-4.98;68.39;92566.75;5017746;28;20207;-72
2022/01/23 05:37:50;;;;;;;4.87;4.57;;;;;;;-5.04;68.88;92557.66;5016307;28;20563;-72
2022/01/23 05:40:19;;;;;;;3.77;3.63;;;;;;;-4.91;68.54;92558.66;5016869;28;20334;-72
2022/01/23 05:42:46;;;;;;;1.07;1.00;;;;;;;-4.95;69.96;92552.00;5016744;28;20533;-72
2022/01/23 05:45:13;;;;;;;1.80;1.80;;;;;;;-4.88;70.09;92555.38;5022587;28;20584;-72
2022/01/23 05:47:41;;;;;;;1.23;1.23;;;;;;;-4.95;71.39;92552.00;5016679;28;20614;-72
2022/01/23 05:50:09;;;;;;;1.80;1.80;;;;;;;-5.19;72.13;92552.53;5017026;28;20190;-72
2022/01/23 05:52:38;;;;;;;1.50;1.50;;;;;;;-5.16;73.80;92544.34;5015128;28;20665;-72
2022/01/23 05:55:06;;;;;;;3.33;3.23;;;;;;;-5.14;73.43;92565.72;5016766;28;20527;-72
2022/01/23 05:57:34;;;;;;;3.30;3.10;;;;;;;-5.11;74.22;92560.81;5016517;28;20658;-72
2022/01/23 06:00:01;;;;;;;2.27;2.17;;;;;;;-5.17;75.31;92573.03;5016510;28;20701;-72
2022/01/23 06:02:28;;;;;;;2.63;2.43;;;;;;;-5.22;75.61;92579.53;5015750;28;20506;-72
2022/01/23 06:04:55;;;;;;;2.60;2.60;;;;;;;-5.25;76.80;92574.59;5016011;28;20617;-72
2022/01/23 06:07:22;;;;;;;2.03;1.93;;;;;;;-5.17;75.58;92589.44;5016165;28;20598;-72
2022/01/23 06:09:51;;;;;;;2.47;2.27;;;;;;;-5.16;76.24;92586.19;5016240;28;20585;-72
2022/01/23 06:12:19;;;;;;;1.10;1.10;;;;;;;-5.24;77.04;92593.44;5016426;28;20462;-72
2022/01/23 06:14:46;;;;;;;1.30;1.30;;;;;;;-5.32;77.96;92596.63;5016653;28;20650;-72
2022/01/23 06:17:15;;;;;;;1.33;1.33;;;;;;;-5.43;78.83;92594.00;5016948;28;20294;-72
2022/01/23 06:19:43;;;;;;;1.33;1.33;;;;;;;-5.49;79.31;92597.19;5016149;28;20350;-72
2022/01/23 06:22:11;;;;;;;4.13;2.23;;;;;;;-5.52;79.29;92601.22;5015788;28;20284;-72
2022/01/23 06:24:45;;;;;;;1.87;1.80;;;;;;;-5.58;80.12;92598.66;5016325;28;20547;-72
2022/01/23 06:27:14;;;;;;;1.13;1.13;;;;;;;-5.61;80.11;92596.97;5025711;28;20477;-72
2022/01/23 06:29:44;;;;;;;1.87;1.87;;;;;;;-5.58;81.40;92596.22;5017550;28;20205;-69
2022/01/23 06:32:13;;;;;;;1.80;1.80;;;;;;;-5.29;82.12;92604.03;5015743;28;20641;-72
2022/01/23 06:34:41;;;;;;;5.33;2.57;;;;;;;-4.92;78.33;92598.84;5016435;28;20534;-73
2022/01/23 06:37:08;;;;;;;3.60;3.50;;;;;;;-4.72;76.12;92608.97;5015775;28;20672;-73
2022/01/23 06:39:35;;;;;;;2.60;2.50;;;;;;;-4.74;75.28;92599.13;5015980;28;20570;-72
2022/01/23 06:42:03;;;;;;;3.27;3.13;;;;;;;-4.62;75.16;92600.91;5015488;28;20711;-71
2022/01/23 06:44:31;;;;;;;2.47;2.37;;;;;;;-4.47;74.56;92608.50;5015778;28;20544;-71
2022/01/23 06:46:58;;;;;;;2.93;2.83;;;;;;;-4.39;75.01;92598.72;5015440;28;20663;-71
2022/01/23 06:49:26;;;;;;;7.67;6.97;;;;;;;-4.44;71.66;92607.69;5021629;28;20632;-72
2022/01/23 06:51:54;;;;;;;3.63;3.53;;;;;;;-4.31;68.98;92616.91;5016768;28;20645;-73
2022/01/23 06:54:21;;;;;;;2.07;2.07;;;;;;;-4.32;68.69;92612.78;5020903;28;20654;-71
2022/01/23 06:56:48;;;;;;;2.20;2.20;;;;;;;-4.20;66.80;92625.25;5020521;28;20490;-72
2022/01/23 06:59:16;;;;;;;4.17;3.87;;;;;;;-4.19;66.85;92617.88;5026030;28;20601;-71
2022/01/23 07:01:44;;;;;;;0.90;0.90;;;;;;;-4.10;66.74;92614.69;5020046;28;20210;-70
2022/01/23 07:04:11;;;;;;;1.50;1.50;;;;;;;-4.08;64.31;92637.72;5021332;28;20636;-71
2022/01/23 07:06:39;;;;;;;2.80;2.80;;;;;;;-4.08;59.49;92667.34;5018088;28;20551;-72
2022/01/23 07:09:06;;;;;;;3.23;3.13;;;;;;;-4.10;59.08;92661.53;5017920;28;20259;-70
2022/01/23 07:11:33;;;;;;;1.07;1.07;;;;;;;-4.17;59.27;92642.56;5017821;28;20493;-70
2022/01/23 07:14:00;;;;;;;1.20;1.20;;;;;;;-4.10;60.88;92627.00;5017231;28;20684;-71
2022/01/23 07:16:27;;;;;;;1.50;1.50;;;;;;;-3.99;59.13;92639.47;5015240;28;20479;-72
2022/01/23 07:18:56;;;;;;;3.33;3.07;;;;;;;-3.88;57.60;92657.69;5019790;28;20202;-72
2022/01/23 07:21:24;;;;;;;3.47;3.27;;;;;;;-3.88;60.46;92638.78;5017783;28;20338;-71
2022/01/23 07:23:52;;;;;;;2.87;2.70;;;;;;;-3.90;59.72;92633.00;5017885;28;20649;-70
2022/01/23 07:26:21;;;;;;;3.27;3.07;;;;;;;-3.72;58.75;92653.75;5017300;28;20568;-70
2022/01/23 07:28:49;;;;;;;1.23;1.23;;;;;;;-3.64;57.70;92667.00;5018509;28;20219;-71
2022/01/23 07:31:32;;;;;;;0.73;0.73;;;;;;;-3.55;59.98;92638.28;5016074;28;20740;-71
2022/01/23 07:34:03;;;;;;;2.83;2.70;;;;;;;-3.37;59.82;92623.66;5014940;28;20272;-69
2022/01/23 07:36:30;;;;;;;1.17;1.17;;;;;;;-3.24;58.50;92646.81;5017858;28;20578;-71
2022/01/23 07:38:58;;;;;;;1.53;1.53;;;;;;;-3.25;60.97;92615.53;5017464;28;20491;-70
2022/01/23 07:41:25;;;;;;;2.30;2.20;;;;;;;-3.20;56.71;92650.97;5017263;28;20680;-71
2022/01/23 07:43:53;;;;;;;2.27;2.17;;;;;;;-3.15;56.25;92660.88;5016220;28;20580;-72
2022/01/23 07:46:21;;;;;;;2.37;2.33;;;;;;;-3.01;57.73;92642.91;5021869;28;20456;-71
2022/01/23 07:48:48;;;;;;;2.57;2.57;;;;;;;-2.84;58.14;92625.72;5019735;28;20232;-72
2022/01/23 07:51:17;;;;;;;3.17;2.97;;;;;;;-2.77;58.64;92627.44;5017016;28;20568;-72
2022/01/23 07:53:44;;;;;;;4.40;3.43;;;;;;;-2.74;56.49;92656.25;5021406;28;20651;-72
2022/01/23 07:56:12;;;;;;;3.33;3.23;;;;;;;-2.76;55.89;92653.78;5018000;28;20675;-71
2022/01/23 07:58:39;;;;;;;1.93;1.93;;;;;;;-2.71;55.97;92651.38;5018376;28;20600;-71
2022/01/23 08:01:06;;;;;;;4.83;4.53;;;;;;;-2.57;57.50;92637.44;5014891;28;20597;-72
2022/01/23 08:03:34;;;;;;;7.07;4.47;;;;;;;-2.48;56.39;92647.41;5019911;28;20723;-71
2022/01/23 08:06:01;;;;;;;1.73;1.73;;;;;;;-2.42;55.79;92649.88;5025761;28;20494;-72
2022/01/23 08:08:30;;;;;;;1.30;1.30;;;;;;;-2.43;55.63;92642.47;5017360;28;20220;-71
2022/01/23 08:10:57;;;;;;;2.33;2.23;;;;;;;-2.54;54.58;92645.72;5020658;28;20601;-71
2022/01/23 08:13:24;;;;;;;8.70;5.43;;;;;;;-2.47;55.13;92635.81;5023142;28;20665;-73
2022/01/23 08:15:51;;;;;;;4.70;4.37;;;;;;;-2.38;55.59;92630.94;5019377;28;20580;-72
2022/01/23 08:18:19;;;;;;;6.10;5.87;;;;;;;-2.32;54.87;92639.25;5020554;28;20205;-75
2022/01/23 08:20:47;;;;;;;3.30;3.20;;;;;;;-2.27;54.98;92641.72;5021333;28;20587;-71
2022/01/23 08:23:14;;;;;;;3.07;2.97;;;;;;;-2.32;53.18;92654.09;5020523;28;20599;-72
2022/01/23 08:25:43;;;;;;;2.20;2.10;;;;;;;-2.20;53.22;92663.22;5027070;28;20502;-72
2022/01/23 08:28:10;;;;;;;1.53;1.53;;;;;;;-2.24;53.22;92654.09;5017752;28;20472;-73
2022/01/23 08:30:38;;;;;;;2.10;2.10;;;;;;;-2.20;52.96;92656.59;5026347;28;20307;-73
2022/01/23 08:33:05;;;;;;;1.47;1.47;;;;;;;-2.19;54.03;92642.56;5021949;28;20474;-71
2022/01/23 08:35:33;;;;;;;1.63;1.63;;;;;;;-2.06;54.16;92634.41;5020942;28;20598;-72
2022/01/23 08:38:00;;;;;;;3.17;3.07;;;;;;;-1.88;52.09;92653.44;5025918;28;20575;-72
2022/01/23 08:40:47;;;;;;;0.50;0.50;;;;;;;-1.97;49.46;92674.03;5017779;28;20313;-74
2022/01/23 08:43:17;;;;;;;0.97;0.97;;;;;;;-2.00;49.82;92668.25;5025730;28;21077;-72
2022/01/23 08:45:45;;;;;;;7.47;5.67;;;;;;;-1.93;51.28;92650.13;5017853;28;20249;-72
2022/01/23 08:48:13;;;;;;;10.27;7.13;;;;;;;-1.80;51.93;92642.75;5020495;28;20449;-71
2022/01/23 08:50:40;;;;;;;1.43;1.43;;;;;;;-1.66;51.02;92647.75;5020696;28;20552;-72
2022/01/23 08:53:07;;;;;;;2.07;1.93;;;;;;;-1.62;50.91;92651.88;5017941;28;20228;-71
2022/01/23 08:55:35;;;;;;;0.90;0.90;;;;;;;-1.84;49.01;92643.56;5018352;28;20604;-71
2022/01/23 08:58:02;;;;;;;2.90;2.73;;;;;;;-1.69;50.88;92645.28;5019903;28;20497;-72
2022/01/23 09:00:31;;;;;;;1.43;1.43;;;;;;;-1.59;49.84;92656.03;5023815;28;20249;-72
2022/01/23 09:02:59;;;;;;;0.50;0.50;;;;;;;-1.87;48.51;92653.47;5019591;28;20571;-72
2022/01/23 09:05:26;;;;;;;4.03;3.93;;;;;;;-1.70;49.99;92637.03;5018924;28;20503;-71
2022/01/23 09:07:53;;;;;;;1.30;1.20;;;;;;;-1.47;50.62;92633.78;5025723;28;20505;-72
2022/01/23 09:10:26;;;;;;;1.27;1.27;;;;;;;-1.12;50.16;92632.16;5021406;28;20604;-71
2022/01/23 09:15:41;;;;;;;2.23;2.13;;;;;;;-0.37;49.53;92639.56;5015098;28;20602;-73
2022/01/23 09:18:08;;;;;;;1.37;1.37;;;;;;;-0.11;47.02;92647.78;5014728;28;20496;-72
2022/01/23 09:20:40;;;;;;;1.53;1.53;;;;;;;0.14;48.19;92648.53;5020536;28;20614;-72
2022/01/23 09:23:07;;;;;;;4.13;4.03;;;;;;;0.27;47.14;92645.19;5020658;28;20494;-70
2022/01/23 09:25:34;;;;;;;2.40;2.20;;;;;;;0.37;46.65;92641.81;5016046;28;20604;-70
2022/01/23 09:28:05;;;;;;;8.37;3.13;;;;;;;0.46;46.83;92639.28;5017709;28;20599;-71
2022/01/23 09:30:35;;;;;;;4.87;3.90;;;;;;;0.67;46.63;92633.41;5020254;28;20581;-70
2022/01/23 09:33:04;;;;;;;2.53;1.70;;;;;;;0.88;44.75;92642.38;5028239;28;20537;-71
2022/01/23 09:35:32;;;;;;;1.80;1.80;;;;;;;0.70;41.85;92664.03;5025145;28;20520;-71
2022/01/23 09:38:00;;;;;;;2.60;2.50;;;;;;;0.37;41.91;92656.72;5020799;28;20581;-71
2022/01/23 09:40:27;;;;;;;1.43;1.33;;;;;;;0.22;42.93;92649.34;5018516;28;20660;-71
2022/01/23 09:43:03;;;;;;;3.20;3.00;;;;;;;-0.25;43.84;92635.41;5015981;28;20486;-71
2022/01/23 09:45:31;;;;;;;1.97;1.93;;;;;;;-0.39;44.40;92624.66;5020642;28;20197;-71
2022/01/23 09:48:01;;;;;;;1.80;1.70;;;;;;;-0.36;44.49;92613.94;5016887;28;20229;-70
2022/01/23 09:50:31;;;;;;;10.27;5.13;;;;;;;-0.34;44.40;92614.75;5016956;28;20578;-71
2022/01/23 09:52:59;;;;;;;1.33;1.23;;;;;;;-0.68;43.36;92632.19;5018494;28;20523;-71
2022/01/23 09:55:27;;;;;;;1.90;1.13;;;;;;;-0.41;42.89;92621.38;5017234;28;20581;-71
2022/01/23 09:57:55;;;;;;;3.70;3.50;;;;;;;-0.16;45.07;92602.28;5017333;28;20307;-71
2022/01/23 10:00:25;;;;;;;0.57;0.57;;;;;;;0.02;42.98;92616.28;5016753;28;20624;-72
2022/01/23 10:02:53;;;;;;;2.27;2.17;;;;;;;0.11;46.22;92577.38;5018481;28;20567;-71
2022/01/23 10:05:20;;;;;;;0.97;0.90;;;;;;;0.19;45.27;92582.28;5018969;28;20633;-72
2022/01/23 10:07:50;;;;;;;1.17;1.17;;;;;;;0.51;45.52;92580.44;5017988;28;20527;-72
2022/01/23 10:10:21;;;;;;;3.63;3.40;;;;;;;0.75;45.94;92589.41;5018929;28;20560;-72
2022/01/23 10:12:50;;;;;;;2.23;2.13;;;;;;;1.20;43.33;92591.56;5020395;28;20225;-72
2022/01/23 10:15:19;;;;;;;15.57;3.70;;;;;;;1.69;45.08;92576.16;5018369;28;20498;-73
2022/01/23 10:17:47;;;;;;;3.50;3.30;;;;;;;2.37;41.90;92597.78;5018222;28;20543;-71
2022/01/23 10:20:16;;;;;;;2.83;2.17;;;;;;;3.25;38.68;92611.53;5018420;28;20255;-72
2022/01/23 10:22:46;;;;;;;4.50;4.20;;;;;;;4.51;38.74;92609.25;5024790;28;20611;-73
2022/01/23 10:25:17;;;;;;;3.57;3.37;;;;;;;5.56;35.35;92621.97;5017719;28;20640;-72
2022/01/23 10:27:58;;;;;;;2.13;2.03;;;;;;;6.45;34.31;92623.88;5018571;28;20563;-72
2022/01/23 10:30:28;;;;;;;3.70;3.43;;;;;;;7.12;33.54;92628.66;5024670;28;20618;-72
2022/01/23 10:33:03;;;;;;;5.67;2.33;;;;;;;7.35;31.76;92631.31;5021011;28;20497;-73
2022/01/23 10:35:30;;;;;;;1.43;1.43;;;;;;;7.05;30.28;92648.09;5023278;28;20619;-73
2022/01/23 10:38:04;;;;;;;0.87;0.87;;;;;;;6.34;29.97;92650.94;5013376;28;20554;-73
2022/01/23 10:40:37;;;;;;;1.67;1.67;;;;;;;5.63;31.79;92625.16;5014778;28;20236;-72
2022/01/23 10:48:47;;;;;;;4.43;4.07;;;;;;;4.40;32.79;92600.31;5036718;28;20203;-72
2022/01/23 10:51:17;;;;;;;2.67;2.57;;;;;;;5.07;32.10;92587.19;5035412;28;20540;-72
2022/01/23 10:54:06;;;;;;;1.30;1.30;;;;;;;5.69;31.83;92594.94;5035097;28;20582;-71
2022/01/23 10:56:39;;;;;;;1.33;1.33;;;;;;;5.22;32.03;92591.03;5030485;28;20537;-70
2022/01/23 10:59:09;;;;;;;8.13;4.57;;;;;;;4.77;34.06;92576.19;5026422;28;20609;-70
2022/01/23 11:01:37;;;;;;;4.13;3.93;;;;;;;4.04;34.50;92564.38;5033791;28;20467;-70
2022/01/23 11:04:07;;;;;;;3.73;3.40;;;;;;;3.63;35.46;92547.63;5032290;28;20640;-71
2022/01/23 11:06:51;;;;;;;1.83;1.83;;;;;;;3.50;36.56;92537.03;5022620;28;20684;-70
2022/01/23 11:09:18;;;;;;;13.63;6.93;;;;;;;3.51;36.80;92531.19;5015939;28;20573;-71
2022/01/23 11:11:49;;;;;;;8.17;4.80;;;;;;;3.41;37.55;92526.41;5016696;28;20480;-71
2022/01/23 11:19:47;;;;;;;1.00;1.00;;;;;;;2.47;37.54;92513.75;5023691;28;20656;-70
2022/01/23 11:22:19;;;;;;;1.93;1.93;;;;;;;2.09;36.10;92529.19;5018522;28;20952;-70
2022/01/23 11:24:48;;;;;;;2.50;2.40;;;;;;;1.55;40.14;92484.22;5022134;28;20610;-71
2022/01/23 11:27:17;;;;;;;1.77;1.77;;;;;;;1.49;39.25;92494.22;5016707;28;20238;-71
2022/01/23 11:29:56;;;;;;;6.83;6.23;;;;;;;1.36;39.13;92499.34;5028241;28;20227;-71
2022/01/23 11:32:25;;;;;;;2.17;2.07;;;;;;;1.21;39.29;92490.38;5022582;28;20653;-71
2022/01/23 11:35:03;;;;;;;2.53;1.93;;;;;;;1.05;41.61;92469.00;5026868;28;20231;-70
2022/01/23 11:37:30;;;;;;;3.77;3.27;;;;;;;0.94;41.05;92464.13;5022022;28;20199;-70
2022/01/23 11:40:03;;;;;;;4.17;3.93;;;;;;;0.91;42.54;92453.34;5014356;28;20207;-70
2022/01/23 11:51:08;;;;;;;3.77;3.50;;;;;;;0.80;43.78;92451.81;5033729;28;20218;-70
2022/01/23 11:53:50;;;;;;;6.20;3.60;;;;;;;0.90;44.52;92451.75;5038054;28;20469;-71
2022/01/23 11:56:41;;;;;;;2.37;2.30;;;;;;;0.50;42.01;92467.00;5035022;28;20635;-70
2022/01/23 11:59:26;;;;;;;3.57;3.47;;;;;;;0.27;44.87;92431.56;5035979;28;20615;-71
2022/01/23 12:02:25;;;;;;;2.80;2.70;;;;;;;0.39;44.31;92446.38;5028296;28;20512;-70
2022/01/23 12:05:21;;;;;;;2.30;2.10;;;;;;;0.49;43.25;92452.91;5020703;28;20601;-70
2022/01/23 12:08:28;;;;;;;3.00;2.90;;;;;;;0.39;42.13;92449.66;5023792;28;20453;-70
2022/01/23 12:17:40;;;;;;;0.97;0.97;;;;;;;0.11;44.62;92420.91;5020419;28;20466;-71
2022/01/23 12:20:09;;;;;;;3.03;2.90;;;;;;;0.22;45.86;92416.69;5020853;28;20610;-70
2022/01/23 12:22:45;;;;;;;1.20;1.20;;;;;;;0.06;42.24;92449.09;5027723;28;20654;-71
2022/01/23 12:25:27;;;;;;;3.47;1.43;;;;;;;0.00;40.87;92453.25;5020190;28;20466;-71
2022/01/23 12:28:32;;;;;;;1.40;1.40;;;;;;;0.05;45.54;92430.06;5029116;28;20566;-69
2022/01/23 12:31:18;;;;;;;3.80;3.47;;;;;;;0.05;45.92;92420.97;5030780;28;20582;-69
2022/01/23 12:33:49;;;;;;;2.50;2.40;;;;;;;-0.09;43.62;92415.25;5032466;28;20549;-69
2022/01/23 12:36:25;;;;;;;0.90;0.90;;;;;;;-0.06;40.51;92460.72;5021746;28;20647;-69
2022/01/23 12:38:54;;;;;;;1.73;1.73;;;;;;;-0.23;42.33;92446.78;5019177;28;20647;-69
2022/01/23 12:41:25;;;;;;;3.30;2.83;;;;;;;-0.24;43.35;92441.00;5017511;28;20237;-70
2022/01/23 12:43:55;;;;;;;2.50;2.40;;;;;;;-0.29;44.22;92445.16;5017293;28;20582;-71
2022/01/23 12:46:29;;;;;;;1.60;1.60;;;;;;;-0.34;41.29;92464.22;5026747;28;20197;-70
2022/01/23 12:48:59;;;;;;;5.00;3.13;;;;;;;-0.64;41.26;92474.25;5019163;28;20545;-71
2022/01/23 12:51:41;;;;;;;2.37;2.17;;;;;;;-0.94;42.09;92450.38;5017411;28;20229;-72
2022/01/23 12:54:28;;;;;;;1.60;1.37;;;;;;;-1.05;44.13;92457.84;5017443;28;20518;-71
2022/01/23 12:56:57;;;;;;;2.97;1.50;;;;;;;-1.16;43.67;92459.50;5023185;28;20451;-71
2022/01/23 12:59:33;;;;;;;1.33;1.33;;;;;;;-1.20;44.36;92449.63;5016686;28;20194;-71
2022/01/23 13:02:11;;;;;;;0.87;0.87;;;;;;;-1.27;44.06;92462.00;5017513;28;20571;-72
2022/01/23 13:04:41;;;;;;;1.57;1.57;;;;;;;-1.34;43.78;92447.97;5020558;28;20477;-71
2022/01/23 13:07:36;;;;;;;8.10;1.70;;;;;;;-1.42;43.04;92467.00;5025494;28;20572;-71
2022/01/23 13:10:22;;;;;;;1.13;1.13;;;;;;;-1.39;43.74;92463.66;5019520;28;20593;-72
2022/01/23 13:12:55;;;;;;;2.50;2.17;;;;;;;-1.58;43.54;92464.53;5019583;28;20530;-72
2022/01/23 13:16:03;;;;;;;1.33;1.33;;;;;;;-1.59;43.87;92457.91;5021396;28;20496;-72
2022/01/23 13:18:44;;;;;;;1.37;1.37;;;;;;;-1.84;44.67;92457.91;5021054;28;20952;-72
2022/01/23 13:27:24;;;;;;;1.20;1.10;;;;;;;-2.17;45.66;92463.63;4959815;28;20626;-72
2022/01/23 13:29:58;;;;;;;2.10;1.77;;;;;;;-2.23;44.51;92480.13;5003833;28;20589;-72
2022/01/23 13:32:32;;;;;;;1.57;1.47;;;;;;;-2.38;44.47;92462.78;5018751;28;20202;-72
2022/01/23 13:35:06;;;;;;;0.90;0.90;;;;;;;-2.47;46.73;92470.16;5017084;28;20597;-72
2022/01/23 13:37:37;;;;;;;1.23;1.23;;;;;;;-2.54;45.01;92474.28;5021234;28;20484;-73
2022/01/23 13:40:08;;;;;;;2.03;1.93;;;;;;;-2.63;44.77;92480.00;5019073;28;20560;-74
2022/01/23 13:42:54;;;;;;;1.17;0.73;;;;;;;-2.71;46.67;92461.03;5017250;28;20476;-72
2022/01/23 13:59:27;;;;;;;0.83;0.83;;;;;;;-2.72;46.44;92496.44;5015838;28;20555;-70
2022/01/23 14:02:08;;;;;;;1.17;1.17;;;;;;;-2.73;45.85;92495.63;5015579;28;20545;-72
2022/01/23 14:04:38;;;;;;;0.57;0.57;;;;;;;-2.69;45.35;92513.75;5020263;28;20606;-73
2022/01/23 14:07:07;;;;;;;1.73;1.73;;;;;;;-2.69;45.97;92512.09;5018448;28;20605;-72
2022/01/23 14:09:38;;;;;;;1.47;1.43;;;;;;;-2.90;46.87;92494.72;5019737;28;20255;-73
2022/01/23 14:12:09;;;;;;;1.13;1.13;;;;;;;-2.86;47.04;92503.78;5016383;28;20557;-72
2022/01/23 14:14:36;;;;;;;0.80;0.80;;;;;;;-2.81;47.44;92507.09;5013670;28;20503;-73
2022/01/23 14:17:14;;;;;;;1.87;1.77;;;;;;;-2.89;48.59;92485.66;5017962;28;20196;-71
2022/01/23 14:19:42;;;;;;;1.63;1.53;;;;;;;-2.92;47.08;92513.63;5023948;28;20555;-72
2022/01/23 14:22:10;;;;;;;0.93;0.93;;;;;;;-2.92;45.96;92521.88;5022405;28;20624;-71
2022/01/23 14:24:38;;;;;;;1.07;1.07;;;;;;;-2.96;47.12;92524.31;5023787;28;20518;-73
2022/01/23 14:27:07;;;;;;;1.20;1.20;;;;;;;-2.97;46.38;92521.03;5026989;28;20561;-71
2022/01/23 14:29:48;;;;;;;2.27;2.23;;;;;;;-2.93;46.95;92529.31;5025529;28;20211;-72
2022/01/23 14:32:22;;;;;;;1.10;1.10;;;;;;;-2.92;47.74;92518.56;5015824;28;20596;-72
2022/01/23 14:34:49;;;;;;;1.53;1.43;;;;;;;-3.00;47.56;92522.66;5016871;28;20513;-71